sensor_id;sensor_type;location;lat;lon;timestamp;P1;durP1;ratioP1;P2;durP2;ratioP2
52898;SDS011;38763;53.096;6.062;2022-11-27T00:00:22;29.02;;;7.60;;
52898;SDS011;38763;53.096;6.062;2022-11-27T00:02:48;28.63;;;6.80;;
52898;SDS011;38763;53.096;6.062;2022-11-27T00:05:13;29.67;;;7.45;;
52898;SDS011;38763;53.096;6.062;2022-11-27T00:07:39;21.42;;;7.25;;
52898;SDS011;38763;53.096;6.062;2022-11-27T00:10:05;29.27;;;6.97;;
52898;SDS011;38763;53.096;6.062;2022-11-27T00:12:31;24.63;;;7.22;;
52898;SDS011;38763;53.096;6.062;2022-11-27T00:14:57;23.13;;;7.20;;
52898;SDS011;38763;53.096;6.062;2022-11-27T00:17:23;26.08;;;6.72;;
52898;SDS011;38763;53.096;6.062;2022-11-27T00:19:48;28.20;;;6.95;;
52898;SDS011;38763;53.096;6.062;2022-11-27T00:22:14;27.20;;;6.70;;
52898;SDS011;38763;53.096;6.062;2022-11-27T00:24:39;31.75;;;7.68;;
52898;SDS011;38763;53.096;6.062;2022-11-27T00:27:06;18.23;;;6.60;;
52898;SDS011;38763;53.096;6.062;2022-11-27T00:29:32;24.92;;;7.10;;
52898;SDS011;38763;53.096;6.062;2022-11-27T00:31:58;25.45;;;7.00;;
52898;SDS011;38763;53.096;6.062;2022-11-27T00:34:23;18.95;;;5.95;;
52898;SDS011;38763;53.096;6.062;2022-11-27T00:36:49;22.80;;;7.03;;
52898;SDS011;38763;53.096;6.062;2022-11-27T00:39:15;28.80;;;7.22;;
52898;SDS011;38763;53.096;6.062;2022-11-27T00:41:40;21.00;;;5.50;;
52898;SDS011;38763;53.096;6.062;2022-11-27T00:44:06;20.45;;;5.75;;
52898;SDS011;38763;53.096;6.062;2022-11-27T00:46:32;22.30;;;6.93;;
52898;SDS011;38763;53.096;6.062;2022-11-27T00:48:59;22.77;;;6.50;;
52898;SDS011;38763;53.096;6.062;2022-11-27T00:51:26;19.35;;;6.05;;
52898;SDS011;38763;53.096;6.062;2022-11-27T00:53:53;18.75;;;5.82;;
52898;SDS011;38763;53.096;6.062;2022-11-27T00:56:20;24.00;;;5.88;;
52898;SDS011;38763;53.096;6.062;2022-11-27T00:58:47;21.45;;;6.38;;
52898;SDS011;38763;53.096;6.062;2022-11-27T01:01:17;23.95;;;6.30;;
52898;SDS011;38763;53.096;6.062;2022-11-27T01:03:48;22.17;;;6.30;;
52898;SDS011;38763;53.096;6.062;2022-11-27T01:06:14;24.40;;;5.82;;
52898;SDS011;38763;53.096;6.062;2022-11-27T01:08:41;21.10;;;5.93;;
52898;SDS011;38763;53.096;6.062;2022-11-27T01:11:11;24.55;;;6.50;;
52898;SDS011;38763;53.096;6.062;2022-11-27T01:13:39;22.45;;;6.45;;
52898;SDS011;38763;53.096;6.062;2022-11-27T01:16:09;24.55;;;6.32;;
52898;SDS011;38763;53.096;6.062;2022-11-27T01:18:37;19.52;;;5.53;;
52898;SDS011;38763;53.096;6.062;2022-11-27T01:21:04;20.58;;;6.15;;
52898;SDS011;38763;53.096;6.062;2022-11-27T01:23:30;23.52;;;5.85;;
52898;SDS011;38763;53.096;6.062;2022-11-27T01:25:58;24.70;;;6.65;;
52898;SDS011;38763;53.096;6.062;2022-11-27T01:28:25;18.23;;;6.00;;
52898;SDS011;38763;53.096;6.062;2022-11-27T01:30:50;19.65;;;5.45;;
52898;SDS011;38763;53.096;6.062;2022-11-27T01:33:16;18.52;;;5.70;;
52898;SDS011;38763;53.096;6.062;2022-11-27T01:35:42;22.35;;;6.38;;
52898;SDS011;38763;53.096;6.062;2022-11-27T01:38:20;20.63;;;6.00;;
52898;SDS011;38763;53.096;6.062;2022-11-27T01:40:47;21.27;;;5.20;;
52898;SDS011;38763;53.096;6.062;2022-11-27T01:43:15;21.00;;;6.22;;
52898;SDS011;38763;53.096;6.062;2022-11-27T01:45:42;17.30;;;6.18;;
52898;SDS011;38763;53.096;6.062;2022-11-27T01:48:09;16.98;;;5.65;;
52898;SDS011;38763;53.096;6.062;2022-11-27T01:50:37;21.67;;;6.15;;
52898;SDS011;38763;53.096;6.062;2022-11-27T01:53:14;20.90;;;5.72;;
52898;SDS011;38763;53.096;6.062;2022-11-27T01:55:44;21.00;;;5.80;;
52898;SDS011;38763;53.096;6.062;2022-11-27T01:58:26;17.65;;;5.05;;
52898;SDS011;38763;53.096;6.062;2022-11-27T02:00:54;23.98;;;6.22;;
52898;SDS011;38763;53.096;6.062;2022-11-27T02:03:20;15.75;;;5.40;;
52898;SDS011;38763;53.096;6.062;2022-11-27T02:05:46;20.00;;;5.60;;
52898;SDS011;38763;53.096;6.062;2022-11-27T02:08:12;19.48;;;6.03;;
52898;SDS011;38763;53.096;6.062;2022-11-27T02:10:50;16.20;;;5.50;;
52898;SDS011;38763;53.096;6.062;2022-11-27T02:16:15;14.45;;;5.35;;
52898;SDS011;38763;53.096;6.062;2022-11-27T02:22:04;17.38;;;5.60;;
52898;SDS011;38763;53.096;6.062;2022-11-27T02:27:32;15.63;;;5.68;;
52898;SDS011;38763;53.096;6.062;2022-11-27T02:30:21;14.35;;;4.53;;
52898;SDS011;38763;53.096;6.062;2022-11-27T02:32:52;16.42;;;5.22;;
52898;SDS011;38763;53.096;6.062;2022-11-27T02:35:29;19.73;;;5.35;;
52898;SDS011;38763;53.096;6.062;2022-11-27T02:38:22;22.60;;;5.55;;
52898;SDS011;38763;53.096;6.062;2022-11-27T02:41:03;17.20;;;5.25;;
52898;SDS011;38763;53.096;6.062;2022-11-27T02:43:33;13.38;;;5.05;;
52898;SDS011;38763;53.096;6.062;2022-11-27T02:46:02;23.35;;;5.40;;
52898;SDS011;38763;53.096;6.062;2022-11-27T02:48:32;18.08;;;4.97;;
52898;SDS011;38763;53.096;6.062;2022-11-27T02:51:01;14.38;;;5.07;;
52898;SDS011;38763;53.096;6.062;2022-11-27T02:53:34;14.73;;;4.55;;
52898;SDS011;38763;53.096;6.062;2022-11-27T02:56:03;14.27;;;5.82;;
52898;SDS011;38763;53.096;6.062;2022-11-27T02:58:32;12.43;;;4.72;;
52898;SDS011;38763;53.096;6.062;2022-11-27T03:01:01;21.60;;;5.53;;
52898;SDS011;38763;53.096;6.062;2022-11-27T03:03:31;16.10;;;5.05;;
52898;SDS011;38763;53.096;6.062;2022-11-27T03:06:02;16.15;;;4.88;;
52898;SDS011;38763;53.096;6.062;2022-11-27T03:08:49;17.55;;;5.32;;
52898;SDS011;38763;53.096;6.062;2022-11-27T03:11:21;18.45;;;5.10;;
52898;SDS011;38763;53.096;6.062;2022-11-27T03:13:52;16.13;;;5.63;;
52898;SDS011;38763;53.096;6.062;2022-11-27T03:16:22;16.90;;;5.37;;
52898;SDS011;38763;53.096;6.062;2022-11-27T03:18:57;17.48;;;5.35;;
52898;SDS011;38763;53.096;6.062;2022-11-27T03:21:38;18.95;;;6.07;;
52898;SDS011;38763;53.096;6.062;2022-11-27T03:24:17;14.10;;;5.57;;
52898;SDS011;38763;53.096;6.062;2022-11-27T03:26:43;15.50;;;4.38;;
52898;SDS011;38763;53.096;6.062;2022-11-27T03:29:13;18.08;;;5.15;;
52898;SDS011;38763;53.096;6.062;2022-11-27T03:32:01;22.17;;;6.25;;
52898;SDS011;38763;53.096;6.062;2022-11-27T03:34:28;17.75;;;5.68;;
52898;SDS011;38763;53.096;6.062;2022-11-27T03:36:54;15.27;;;5.22;;
52898;SDS011;38763;53.096;6.062;2022-11-27T03:39:20;16.13;;;5.70;;
52898;SDS011;38763;53.096;6.062;2022-11-27T03:41:55;19.92;;;5.68;;
52898;SDS011;38763;53.096;6.062;2022-11-27T03:50:08;16.38;;;5.88;;
52898;SDS011;38763;53.096;6.062;2022-11-27T03:55:48;11.13;;;5.20;;
52898;SDS011;38763;53.096;6.062;2022-11-27T03:58:31;18.90;;;5.72;;
52898;SDS011;38763;53.096;6.062;2022-11-27T04:01:03;21.13;;;5.47;;
52898;SDS011;38763;53.096;6.062;2022-11-27T04:03:32;17.73;;;5.90;;
52898;SDS011;38763;53.096;6.062;2022-11-27T04:05:58;14.10;;;5.43;;
52898;SDS011;38763;53.096;6.062;2022-11-27T04:08:24;17.48;;;5.68;;
52898;SDS011;38763;53.096;6.062;2022-11-27T04:10:49;17.30;;;5.63;;
52898;SDS011;38763;53.096;6.062;2022-11-27T04:13:15;14.40;;;5.30;;
52898;SDS011;38763;53.096;6.062;2022-11-27T04:15:41;12.65;;;5.30;;
52898;SDS011;38763;53.096;6.062;2022-11-27T04:18:06;21.10;;;5.65;;
52898;SDS011;38763;53.096;6.062;2022-11-27T04:20:32;15.90;;;5.80;;
52898;SDS011;38763;53.096;6.062;2022-11-27T04:22:58;12.95;;;5.22;;
52898;SDS011;38763;53.096;6.062;2022-11-27T04:25:23;16.88;;;5.82;;
52898;SDS011;38763;53.096;6.062;2022-11-27T04:27:49;15.27;;;5.65;;
52898;SDS011;38763;53.096;6.062;2022-11-27T04:30:15;15.18;;;6.30;;
52898;SDS011;38763;53.096;6.062;2022-11-27T04:32:41;17.38;;;5.57;;
52898;SDS011;38763;53.096;6.062;2022-11-27T04:35:07;12.77;;;4.45;;
52898;SDS011;38763;53.096;6.062;2022-11-27T04:37:33;14.90;;;5.00;;
52898;SDS011;38763;53.096;6.062;2022-11-27T04:39:59;19.17;;;5.80;;
52898;SDS011;38763;53.096;6.062;2022-11-27T04:42:25;15.40;;;5.85;;
52898;SDS011;38763;53.096;6.062;2022-11-27T04:44:50;17.20;;;5.63;;
52898;SDS011;38763;53.096;6.062;2022-11-27T04:47:16;13.02;;;5.38;;
52898;SDS011;38763;53.096;6.062;2022-11-27T04:49:42;20.25;;;5.18;;
52898;SDS011;38763;53.096;6.062;2022-11-27T04:52:08;16.85;;;4.90;;
52898;SDS011;38763;53.096;6.062;2022-11-27T04:54:35;14.30;;;4.40;;
52898;SDS011;38763;53.096;6.062;2022-11-27T04:57:01;13.63;;;5.38;;
52898;SDS011;38763;53.096;6.062;2022-11-27T04:59:27;15.18;;;5.10;;
52898;SDS011;38763;53.096;6.062;2022-11-27T05:01:53;18.70;;;4.55;;
52898;SDS011;38763;53.096;6.062;2022-11-27T05:04:18;12.75;;;4.65;;
52898;SDS011;38763;53.096;6.062;2022-11-27T05:06:44;14.63;;;4.07;;
52898;SDS011;38763;53.096;6.062;2022-11-27T05:09:10;11.32;;;4.07;;
52898;SDS011;38763;53.096;6.062;2022-11-27T05:11:35;16.85;;;4.70;;
52898;SDS011;38763;53.096;6.062;2022-11-27T05:14:01;15.50;;;4.28;;
52898;SDS011;38763;53.096;6.062;2022-11-27T05:16:46;19.42;;;5.43;;
52898;SDS011;38763;53.096;6.062;2022-11-27T05:19:13;16.70;;;4.72;;
52898;SDS011;38763;53.096;6.062;2022-11-27T05:21:40;13.45;;;4.63;;
52898;SDS011;38763;53.096;6.062;2022-11-27T05:24:06;15.43;;;5.47;;
52898;SDS011;38763;53.096;6.062;2022-11-27T05:26:33;10.80;;;4.38;;
52898;SDS011;38763;53.096;6.062;2022-11-27T05:28:58;13.10;;;4.15;;
52898;SDS011;38763;53.096;6.062;2022-11-27T05:31:24;15.73;;;4.10;;
52898;SDS011;38763;53.096;6.062;2022-11-27T05:33:50;13.70;;;4.07;;
52898;SDS011;38763;53.096;6.062;2022-11-27T05:36:16;13.38;;;4.65;;
52898;SDS011;38763;53.096;6.062;2022-11-27T05:38:41;10.68;;;3.97;;
52898;SDS011;38763;53.096;6.062;2022-11-27T05:41:07;14.25;;;4.57;;
52898;SDS011;38763;53.096;6.062;2022-11-27T05:43:33;14.48;;;3.80;;
52898;SDS011;38763;53.096;6.062;2022-11-27T05:45:58;13.63;;;4.15;;
52898;SDS011;38763;53.096;6.062;2022-11-27T05:48:28;14.77;;;4.05;;
52898;SDS011;38763;53.096;6.062;2022-11-27T05:50:53;9.32;;;3.55;;
52898;SDS011;38763;53.096;6.062;2022-11-27T05:53:19;13.68;;;4.30;;
52898;SDS011;38763;53.096;6.062;2022-11-27T05:55:45;10.85;;;3.47;;
52898;SDS011;38763;53.096;6.062;2022-11-27T05:58:10;11.57;;;3.92;;
52898;SDS011;38763;53.096;6.062;2022-11-27T06:00:36;12.18;;;3.45;;
52898;SDS011;38763;53.096;6.062;2022-11-27T06:03:01;12.80;;;4.13;;
52898;SDS011;38763;53.096;6.062;2022-11-27T06:05:27;12.52;;;3.92;;
52898;SDS011;38763;53.096;6.062;2022-11-27T06:07:53;11.30;;;3.60;;
52898;SDS011;38763;53.096;6.062;2022-11-27T06:10:19;10.70;;;4.13;;
52898;SDS011;38763;53.096;6.062;2022-11-27T06:12:44;11.93;;;3.90;;
52898;SDS011;38763;53.096;6.062;2022-11-27T06:15:10;8.52;;;3.45;;
52898;SDS011;38763;53.096;6.062;2022-11-27T06:17:36;14.38;;;3.75;;
52898;SDS011;38763;53.096;6.062;2022-11-27T06:20:01;11.27;;;3.95;;
52898;SDS011;38763;53.096;6.062;2022-11-27T06:22:27;17.20;;;4.05;;
52898;SDS011;38763;53.096;6.062;2022-11-27T06:24:54;13.27;;;3.28;;
52898;SDS011;38763;53.096;6.062;2022-11-27T06:27:19;13.98;;;4.13;;
52898;SDS011;38763;53.096;6.062;2022-11-27T06:29:45;11.75;;;3.70;;
52898;SDS011;38763;53.096;6.062;2022-11-27T06:32:11;8.85;;;2.92;;
52898;SDS011;38763;53.096;6.062;2022-11-27T06:34:36;13.55;;;3.47;;
52898;SDS011;38763;53.096;6.062;2022-11-27T06:37:02;10.52;;;3.35;;
52898;SDS011;38763;53.096;6.062;2022-11-27T06:39:28;15.02;;;3.70;;
52898;SDS011;38763;53.096;6.062;2022-11-27T06:41:53;11.20;;;3.40;;
52898;SDS011;38763;53.096;6.062;2022-11-27T06:44:19;10.27;;;3.40;;
52898;SDS011;38763;53.096;6.062;2022-11-27T06:46:44;11.02;;;4.00;;
52898;SDS011;38763;53.096;6.062;2022-11-27T06:49:10;11.75;;;3.25;;
52898;SDS011;38763;53.096;6.062;2022-11-27T06:51:36;12.82;;;3.63;;
52898;SDS011;38763;53.096;6.062;2022-11-27T06:54:01;13.75;;;3.28;;
52898;SDS011;38763;53.096;6.062;2022-11-27T06:56:28;11.15;;;3.33;;
52898;SDS011;38763;53.096;6.062;2022-11-27T06:58:59;13.93;;;3.65;;
52898;SDS011;38763;53.096;6.062;2022-11-27T07:01:26;12.85;;;3.30;;
52898;SDS011;38763;53.096;6.062;2022-11-27T07:03:53;10.13;;;3.05;;
52898;SDS011;38763;53.096;6.062;2022-11-27T07:06:20;9.57;;;3.25;;
52898;SDS011;38763;53.096;6.062;2022-11-27T07:08:47;14.98;;;3.88;;
52898;SDS011;38763;53.096;6.062;2022-11-27T07:11:14;11.95;;;3.17;;
52898;SDS011;38763;53.096;6.062;2022-11-27T07:13:42;14.20;;;3.38;;
52898;SDS011;38763;53.096;6.062;2022-11-27T07:16:09;9.02;;;3.53;;
52898;SDS011;38763;53.096;6.062;2022-11-27T07:18:36;10.25;;;3.40;;
52898;SDS011;38763;53.096;6.062;2022-11-27T07:21:04;12.60;;;3.78;;
52898;SDS011;38763;53.096;6.062;2022-11-27T07:23:30;7.25;;;3.17;;
52898;SDS011;38763;53.096;6.062;2022-11-27T07:25:56;11.18;;;3.55;;
52898;SDS011;38763;53.096;6.062;2022-11-27T07:28:22;11.95;;;3.55;;
52898;SDS011;38763;53.096;6.062;2022-11-27T07:30:54;9.52;;;3.28;;
52898;SDS011;38763;53.096;6.062;2022-11-27T07:33:21;10.38;;;3.45;;
52898;SDS011;38763;53.096;6.062;2022-11-27T07:35:47;12.45;;;3.83;;
52898;SDS011;38763;53.096;6.062;2022-11-27T07:38:13;12.00;;;3.47;;
52898;SDS011;38763;53.096;6.062;2022-11-27T07:40:39;11.30;;;3.50;;
52898;SDS011;38763;53.096;6.062;2022-11-27T07:43:04;12.85;;;3.90;;
52898;SDS011;38763;53.096;6.062;2022-11-27T07:45:30;9.85;;;3.20;;
52898;SDS011;38763;53.096;6.062;2022-11-27T07:47:55;12.73;;;3.42;;
52898;SDS011;38763;53.096;6.062;2022-11-27T07:50:21;10.07;;;3.20;;
52898;SDS011;38763;53.096;6.062;2022-11-27T07:52:46;12.82;;;4.03;;
52898;SDS011;38763;53.096;6.062;2022-11-27T07:55:12;9.05;;;3.20;;
52898;SDS011;38763;53.096;6.062;2022-11-27T07:57:38;9.75;;;3.05;;
52898;SDS011;38763;53.096;6.062;2022-11-27T08:00:04;11.75;;;3.45;;
52898;SDS011;38763;53.096;6.062;2022-11-27T08:02:30;12.70;;;4.15;;
52898;SDS011;38763;53.096;6.062;2022-11-27T08:04:56;10.70;;;3.63;;
52898;SDS011;38763;53.096;6.062;2022-11-27T08:07:26;15.13;;;4.72;;
52898;SDS011;38763;53.096;6.062;2022-11-27T08:09:52;13.15;;;4.72;;
52898;SDS011;38763;53.096;6.062;2022-11-27T08:12:18;11.93;;;4.50;;
52898;SDS011;38763;53.096;6.062;2022-11-27T08:14:43;15.05;;;4.05;;
52898;SDS011;38763;53.096;6.062;2022-11-27T08:17:11;9.45;;;4.07;;
52898;SDS011;38763;53.096;6.062;2022-11-27T08:19:37;14.15;;;3.83;;
52898;SDS011;38763;53.096;6.062;2022-11-27T08:22:02;10.45;;;5.15;;
52898;SDS011;38763;53.096;6.062;2022-11-27T08:24:28;12.20;;;4.00;;
52898;SDS011;38763;53.096;6.062;2022-11-27T08:26:54;11.48;;;4.60;;
52898;SDS011;38763;53.096;6.062;2022-11-27T08:29:19;12.45;;;4.05;;
52898;SDS011;38763;53.096;6.062;2022-11-27T08:31:45;11.50;;;5.43;;
52898;SDS011;38763;53.096;6.062;2022-11-27T08:34:10;14.27;;;5.68;;
52898;SDS011;38763;53.096;6.062;2022-11-27T08:36:36;16.35;;;5.85;;
52898;SDS011;38763;53.096;6.062;2022-11-27T08:39:02;13.55;;;5.63;;
52898;SDS011;38763;53.096;6.062;2022-11-27T08:41:27;15.65;;;7.05;;
52898;SDS011;38763;53.096;6.062;2022-11-27T08:43:53;19.13;;;6.22;;
52898;SDS011;38763;53.096;6.062;2022-11-27T08:46:18;18.08;;;6.47;;
52898;SDS011;38763;53.096;6.062;2022-11-27T08:48:44;14.73;;;6.07;;
52898;SDS011;38763;53.096;6.062;2022-11-27T08:51:10;19.13;;;6.88;;
52898;SDS011;38763;53.096;6.062;2022-11-27T08:53:38;17.02;;;5.22;;
52898;SDS011;38763;53.096;6.062;2022-11-27T08:56:08;11.65;;;4.93;;
52898;SDS011;38763;53.096;6.062;2022-11-27T08:58:37;11.07;;;5.15;;
52898;SDS011;38763;53.096;6.062;2022-11-27T09:01:09;13.88;;;4.90;;
52898;SDS011;38763;53.096;6.062;2022-11-27T09:03:38;12.40;;;4.57;;
52898;SDS011;38763;53.096;6.062;2022-11-27T09:06:08;10.13;;;4.30;;
52898;SDS011;38763;53.096;6.062;2022-11-27T09:08:35;12.55;;;4.60;;
52898;SDS011;38763;53.096;6.062;2022-11-27T09:11:02;16.40;;;5.55;;
52898;SDS011;38763;53.096;6.062;2022-11-27T09:13:28;10.73;;;4.20;;
52898;SDS011;38763;53.096;6.062;2022-11-27T09:15:55;14.07;;;4.60;;
52898;SDS011;38763;53.096;6.062;2022-11-27T09:18:21;10.95;;;4.60;;
52898;SDS011;38763;53.096;6.062;2022-11-27T09:20:55;16.67;;;4.68;;
52898;SDS011;38763;53.096;6.062;2022-11-27T09:23:25;17.00;;;4.70;;
52898;SDS011;38763;53.096;6.062;2022-11-27T09:25:52;12.45;;;4.70;;
52898;SDS011;38763;53.096;6.062;2022-11-27T09:28:17;11.63;;;4.63;;
52898;SDS011;38763;53.096;6.062;2022-11-27T09:30:43;13.05;;;4.40;;
52898;SDS011;38763;53.096;6.062;2022-11-27T09:33:09;12.15;;;4.95;;
52898;SDS011;38763;53.096;6.062;2022-11-27T09:35:38;15.05;;;6.57;;
52898;SDS011;38763;53.096;6.062;2022-11-27T09:38:04;15.50;;;6.60;;
52898;SDS011;38763;53.096;6.062;2022-11-27T09:40:29;13.18;;;5.15;;
52898;SDS011;38763;53.096;6.062;2022-11-27T09:42:59;15.80;;;5.70;;
52898;SDS011;38763;53.096;6.062;2022-11-27T09:45:30;13.13;;;5.63;;
52898;SDS011;38763;53.096;6.062;2022-11-27T09:48:04;15.07;;;5.88;;
52898;SDS011;38763;53.096;6.062;2022-11-27T09:50:36;15.07;;;5.50;;
52898;SDS011;38763;53.096;6.062;2022-11-27T09:53:19;19.73;;;6.60;;
52898;SDS011;38763;53.096;6.062;2022-11-27T09:55:52;11.18;;;5.05;;
52898;SDS011;38763;53.096;6.062;2022-11-27T10:01:00;15.82;;;5.18;;
52898;SDS011;38763;53.096;6.062;2022-11-27T10:03:33;18.58;;;5.32;;
52898;SDS011;38763;53.096;6.062;2022-11-27T10:08:25;16.92;;;5.82;;
52898;SDS011;38763;53.096;6.062;2022-11-27T10:16:43;25.63;;;13.15;;
52898;SDS011;38763;53.096;6.062;2022-11-27T10:31:01;14.50;;;6.13;;
52898;SDS011;38763;53.096;6.062;2022-11-27T10:33:38;15.38;;;6.43;;
52898;SDS011;38763;53.096;6.062;2022-11-27T10:36:16;17.85;;;6.88;;
52898;SDS011;38763;53.096;6.062;2022-11-27T10:38:46;14.10;;;5.32;;
52898;SDS011;38763;53.096;6.062;2022-11-27T10:41:20;16.95;;;6.15;;
52898;SDS011;38763;53.096;6.062;2022-11-27T10:43:53;16.23;;;6.57;;
52898;SDS011;38763;53.096;6.062;2022-11-27T10:46:26;16.80;;;6.07;;
52898;SDS011;38763;53.096;6.062;2022-11-27T10:48:54;14.15;;;6.47;;
52898;SDS011;38763;53.096;6.062;2022-11-27T10:51:21;16.85;;;5.28;;
52898;SDS011;38763;53.096;6.062;2022-11-27T10:53:50;13.65;;;5.53;;
52898;SDS011;38763;53.096;6.062;2022-11-27T10:56:39;14.68;;;6.32;;
52898;SDS011;38763;53.096;6.062;2022-11-27T10:59:32;16.75;;;6.43;;
52898;SDS011;38763;53.096;6.062;2022-11-27T11:02:01;15.80;;;6.07;;
52898;SDS011;38763;53.096;6.062;2022-11-27T11:04:30;13.00;;;5.47;;
52898;SDS011;38763;53.096;6.062;2022-11-27T11:06:56;16.35;;;6.28;;
52898;SDS011;38763;53.096;6.062;2022-11-27T11:09:26;17.77;;;5.72;;
52898;SDS011;38763;53.096;6.062;2022-11-27T11:12:12;17.45;;;6.78;;
52898;SDS011;38763;53.096;6.062;2022-11-27T11:17:27;14.88;;;6.90;;
52898;SDS011;38763;53.096;6.062;2022-11-27T11:20:17;15.82;;;6.15;;
52898;SDS011;38763;53.096;6.062;2022-11-27T11:22:46;17.42;;;6.45;;
52898;SDS011;38763;53.096;6.062;2022-11-27T11:25:16;16.02;;;6.07;;
52898;SDS011;38763;53.096;6.062;2022-11-27T11:27:44;14.18;;;6.03;;
52898;SDS011;38763;53.096;6.062;2022-11-27T11:30:19;12.70;;;5.72;;
52898;SDS011;38763;53.096;6.062;2022-11-27T11:32:46;18.02;;;6.30;;
52898;SDS011;38763;53.096;6.062;2022-11-27T11:35:23;17.55;;;6.22;;
52898;SDS011;38763;53.096;6.062;2022-11-27T11:37:50;17.13;;;6.15;;
52898;SDS011;38763;53.096;6.062;2022-11-27T11:40:21;16.98;;;6.28;;
52898;SDS011;38763;53.096;6.062;2022-11-27T11:42:54;15.88;;;6.65;;
52898;SDS011;38763;53.096;6.062;2022-11-27T11:45:25;17.60;;;6.40;;
52898;SDS011;38763;53.096;6.062;2022-11-27T11:48:34;17.60;;;6.47;;
52898;SDS011;38763;53.096;6.062;2022-11-27T11:50:42;17.25;;;6.82;;
52898;SDS011;38763;53.096;6.062;2022-11-27T11:58:56;15.07;;;7.30;;
52898;SDS011;38763;53.096;6.062;2022-11-27T12:07:28;16.27;;;6.50;;
52898;SDS011;38763;53.096;6.062;2022-11-27T12:10:11;15.52;;;6.80;;
52898;SDS011;38763;53.096;6.062;2022-11-27T12:15:56;15.43;;;6.20;;
52898;SDS011;38763;53.096;6.062;2022-11-27T12:18:47;18.02;;;6.13;;
52898;SDS011;38763;53.096;6.062;2022-11-27T12:26:27;17.35;;;6.90;;
52898;SDS011;38763;53.096;6.062;2022-11-27T12:31:58;21.75;;;7.57;;
52898;SDS011;38763;53.096;6.062;2022-11-27T12:37:18;16.13;;;6.78;;
52898;SDS011;38763;53.096;6.062;2022-11-27T12:45:26;27.35;;;13.82;;
52898;SDS011;38763;53.096;6.062;2022-11-27T12:48:01;17.48;;;5.90;;
52898;SDS011;38763;53.096;6.062;2022-11-27T12:50:40;18.95;;;7.10;;
52898;SDS011;38763;53.096;6.062;2022-11-27T12:55:59;15.75;;;6.45;;
52898;SDS011;38763;53.096;6.062;2022-11-27T12:59:15;15.95;;;6.55;;
52898;SDS011;38763;53.096;6.062;2022-11-27T13:01:44;21.27;;;7.20;;
52898;SDS011;38763;53.096;6.062;2022-11-27T13:04:17;16.30;;;7.18;;
52898;SDS011;38763;53.096;6.062;2022-11-27T13:06:57;22.40;;;10.18;;
52898;SDS011;38763;53.096;6.062;2022-11-27T13:09:46;16.48;;;7.70;;
52898;SDS011;38763;53.096;6.062;2022-11-27T13:12:23;20.27;;;7.47;;
52898;SDS011;38763;53.096;6.062;2022-11-27T13:14:56;17.25;;;6.57;;
52898;SDS011;38763;53.096;6.062;2022-11-27T13:17:36;21.37;;;11.23;;
52898;SDS011;38763;53.096;6.062;2022-11-27T13:20:16;16.90;;;7.32;;
52898;SDS011;38763;53.096;6.062;2022-11-27T13:22:48;19.87;;;9.40;;
52898;SDS011;38763;53.096;6.062;2022-11-27T13:25:15;20.10;;;8.10;;
52898;SDS011;38763;53.096;6.062;2022-11-27T13:27:42;16.83;;;6.93;;
52898;SDS011;38763;53.096;6.062;2022-11-27T13:30:22;17.85;;;8.90;;
52898;SDS011;38763;53.096;6.062;2022-11-27T13:32:56;17.15;;;8.18;;
52898;SDS011;38763;53.096;6.062;2022-11-27T13:35:35;30.35;;;13.05;;
52898;SDS011;38763;53.096;6.062;2022-11-27T13:40:46;16.48;;;7.35;;
52898;SDS011;38763;53.096;6.062;2022-11-27T13:43:26;16.80;;;7.43;;
52898;SDS011;38763;53.096;6.062;2022-11-27T13:46:03;34.90;;;12.38;;
52898;SDS011;38763;53.096;6.062;2022-11-27T13:48:32;45.97;;;19.20;;
52898;SDS011;38763;53.096;6.062;2022-11-27T13:51:00;26.85;;;14.20;;
52898;SDS011;38763;53.096;6.062;2022-11-27T13:53:35;17.20;;;8.40;;
52898;SDS011;38763;53.096;6.062;2022-11-27T13:56:03;14.32;;;7.10;;
52898;SDS011;38763;53.096;6.062;2022-11-27T13:58:32;17.30;;;8.65;;
52898;SDS011;38763;53.096;6.062;2022-11-27T14:01:25;17.33;;;8.75;;
52898;SDS011;38763;53.096;6.062;2022-11-27T14:03:51;16.27;;;7.35;;
52898;SDS011;38763;53.096;6.062;2022-11-27T14:06:25;17.02;;;8.07;;
52898;SDS011;38763;53.096;6.062;2022-11-27T14:09:14;17.75;;;8.10;;
52898;SDS011;38763;53.096;6.062;2022-11-27T14:11:41;16.20;;;7.68;;
52898;SDS011;38763;53.096;6.062;2022-11-27T14:14:16;18.08;;;7.82;;
52898;SDS011;38763;53.096;6.062;2022-11-27T14:16:52;15.73;;;7.53;;
52898;SDS011;38763;53.096;6.062;2022-11-27T14:19:27;14.50;;;6.95;;
52898;SDS011;38763;53.096;6.062;2022-11-27T14:21:58;15.60;;;6.75;;
52898;SDS011;38763;53.096;6.062;2022-11-27T14:26:54;19.38;;;7.32;;
52898;SDS011;38763;53.096;6.062;2022-11-27T14:29:21;19.98;;;7.28;;
52898;SDS011;38763;53.096;6.062;2022-11-27T14:31:54;17.50;;;7.35;;
52898;SDS011;38763;53.096;6.062;2022-11-27T14:34:31;19.48;;;8.70;;
52898;SDS011;38763;53.096;6.062;2022-11-27T14:36:58;17.92;;;7.75;;
52898;SDS011;38763;53.096;6.062;2022-11-27T14:39:26;18.60;;;8.25;;
52898;SDS011;38763;53.096;6.062;2022-11-27T14:44:30;15.77;;;6.50;;
52898;SDS011;38763;53.096;6.062;2022-11-27T14:46:57;20.17;;;9.55;;
52898;SDS011;38763;53.096;6.062;2022-11-27T14:49:26;21.27;;;9.88;;
52898;SDS011;38763;53.096;6.062;2022-11-27T14:51:52;17.10;;;7.20;;
52898;SDS011;38763;53.096;6.062;2022-11-27T14:54:24;13.90;;;7.15;;
52898;SDS011;38763;53.096;6.062;2022-11-27T14:56:55;13.68;;;6.93;;
52898;SDS011;38763;53.096;6.062;2022-11-27T14:59:23;16.30;;;8.35;;
52898;SDS011;38763;53.096;6.062;2022-11-27T15:04:32;16.17;;;6.72;;
52898;SDS011;38763;53.096;6.062;2022-11-27T15:06:59;17.92;;;8.70;;
52898;SDS011;38763;53.096;6.062;2022-11-27T15:09:27;19.15;;;8.18;;
52898;SDS011;38763;53.096;6.062;2022-11-27T15:11:55;17.67;;;8.77;;
52898;SDS011;38763;53.096;6.062;2022-11-27T15:14:43;17.60;;;7.75;;
52898;SDS011;38763;53.096;6.062;2022-11-27T15:17:19;21.35;;;9.75;;
52898;SDS011;38763;53.096;6.062;2022-11-27T15:19:52;31.67;;;16.13;;
52898;SDS011;38763;53.096;6.062;2022-11-27T15:22:19;20.73;;;8.40;;
52898;SDS011;38763;53.096;6.062;2022-11-27T15:24:45;16.27;;;8.18;;
52898;SDS011;38763;53.096;6.062;2022-11-27T15:27:22;16.17;;;7.18;;
52898;SDS011;38763;53.096;6.062;2022-11-27T15:34:43;16.13;;;7.65;;
52898;SDS011;38763;53.096;6.062;2022-11-27T15:37:26;15.05;;;7.03;;
52898;SDS011;38763;53.096;6.062;2022-11-27T15:39:58;13.98;;;7.95;;
52898;SDS011;38763;53.096;6.062;2022-11-27T15:42:25;18.77;;;8.35;;
52898;SDS011;38763;53.096;6.062;2022-11-27T15:44:55;18.85;;;8.48;;
52898;SDS011;38763;53.096;6.062;2022-11-27T15:47:29;31.17;;;16.17;;
52898;SDS011;38763;53.096;6.062;2022-11-27T15:50:00;19.25;;;11.25;;
52898;SDS011;38763;53.096;6.062;2022-11-27T15:52:26;19.48;;;8.80;;
52898;SDS011;38763;53.096;6.062;2022-11-27T15:54:52;18.00;;;9.10;;
52898;SDS011;38763;53.096;6.062;2022-11-27T15:57:19;20.05;;;9.15;;
52898;SDS011;38763;53.096;6.062;2022-11-27T15:59:44;28.48;;;14.73;;
52898;SDS011;38763;53.096;6.062;2022-11-27T16:02:11;18.63;;;9.27;;
52898;SDS011;38763;53.096;6.062;2022-11-27T16:04:37;15.63;;;8.38;;
52898;SDS011;38763;53.096;6.062;2022-11-27T16:07:03;22.85;;;10.98;;
52898;SDS011;38763;53.096;6.062;2022-11-27T16:09:29;18.85;;;7.80;;
52898;SDS011;38763;53.096;6.062;2022-11-27T16:11:55;15.65;;;7.65;;
52898;SDS011;38763;53.096;6.062;2022-11-27T16:14:21;18.73;;;8.82;;
52898;SDS011;38763;53.096;6.062;2022-11-27T16:16:47;19.33;;;7.38;;
52898;SDS011;38763;53.096;6.062;2022-11-27T16:19:12;15.95;;;8.77;;